createdAt,value
2019-03-28T00:01:13.647Z,13.40
2019-03-28T00:03:42.112Z,13.13
2019-03-28T00:06:10.581Z,12.20
2019-03-28T00:08:39.081Z,14.03
2019-03-28T00:11:07.550Z,11.67
2019-03-28T00:13:36.027Z,14.80
2019-03-28T00:16:04.759Z,13.17
2019-03-28T00:18:33.309Z,13.07
2019-03-28T00:21:01.791Z,14.80
2019-03-28T00:23:48.078Z,13.50
2019-03-28T00:26:29.051Z,13.17
2019-03-28T00:28:46.728Z,13.83
2019-03-28T00:31:15.234Z,12.47
2019-03-28T00:33:44.374Z,13.07
2019-03-28T00:36:13.208Z,13.50
2019-03-28T00:38:41.657Z,15.30
2019-03-28T00:41:10.171Z,12.77
2019-03-28T00:43:38.724Z,14.07
2019-03-28T00:46:07.207Z,12.87
2019-03-28T00:48:35.714Z,13.57
2019-03-28T00:51:04.165Z,11.87
2019-03-28T00:53:32.675Z,12.77
2019-03-28T00:56:01.140Z,12.73
2019-03-28T00:58:29.651Z,12.43
2019-03-28T01:00:58.088Z,12.20
2019-03-28T01:03:26.575Z,13.03
2019-03-28T01:05:55.020Z,13.17
2019-03-28T01:08:23.504Z,12.10
2019-03-28T01:10:52.050Z,12.20
2019-03-28T01:13:20.604Z,14.23
2019-03-28T01:15:49.319Z,10.87
2019-03-28T01:18:18.033Z,13.43
2019-03-28T01:20:46.916Z,12.93
2019-03-28T01:23:15.404Z,14.87
2019-03-28T01:25:43.897Z,12.57
2019-03-28T01:28:12.371Z,13.43
2019-03-28T01:30:40.846Z,12.30
2019-03-28T01:33:09.321Z,12.87
2019-03-28T01:35:37.804Z,12.60
2019-03-28T01:38:06.388Z,14.83
2019-03-28T01:40:34.925Z,11.80
2019-03-28T01:43:03.396Z,11.27
2019-03-28T01:45:31.846Z,12.10
2019-03-28T01:48:00.338Z,12.17
2019-03-28T01:50:28.799Z,13.10
2019-03-28T01:52:57.434Z,11.60
2019-03-28T01:55:25.871Z,11.47
2019-03-28T01:57:54.373Z,11.60
2019-03-28T02:00:22.817Z,11.07
2019-03-28T02:02:51.442Z,12.57
2019-03-28T02:05:19.911Z,12.67
2019-03-28T02:07:48.428Z,13.27
2019-03-28T02:10:16.954Z,12.30
2019-03-28T02:12:45.427Z,15.23
2019-03-28T02:15:14.423Z,14.00
2019-03-28T02:17:42.904Z,13.77
2019-03-28T02:20:11.998Z,13.90
2019-03-28T02:22:40.550Z,15.30
2019-03-28T02:25:09.304Z,15.93
2019-03-28T02:27:37.773Z,13.17
2019-03-28T02:30:06.885Z,15.13
2019-03-28T02:32:35.387Z,14.47
2019-03-28T02:35:05.162Z,15.47
2019-03-28T02:37:33.637Z,13.53
2019-03-28T02:40:02.095Z,15.00
2019-03-28T02:42:30.612Z,15.33
2019-03-28T02:44:59.055Z,17.60
2019-03-28T02:47:27.546Z,13.90
2019-03-28T02:49:55.984Z,16.83
2019-03-28T02:52:24.545Z,14.00
2019-03-28T02:54:53.006Z,13.37
2019-03-28T02:57:21.562Z,14.70
2019-03-28T02:59:50.009Z,12.70
2019-03-28T03:02:18.701Z,15.70
2019-03-28T03:04:47.174Z,14.07
2019-03-28T03:07:15.656Z,13.07
2019-03-28T03:09:44.149Z,12.23
2019-03-28T03:12:12.609Z,12.90
2019-03-28T03:14:41.102Z,15.50
2019-03-28T03:17:09.541Z,13.13
2019-03-28T03:19:38.085Z,14.07
2019-03-28T03:22:06.514Z,13.13
2019-03-28T03:24:35.008Z,12.53
2019-03-28T03:27:03.464Z,13.10
2019-03-28T03:29:31.950Z,13.23
2019-03-28T03:32:00.397Z,12.37
2019-03-28T03:34:28.917Z,16.70
2019-03-28T03:36:57.364Z,12.70
2019-03-28T03:39:25.898Z,15.33
2019-03-28T03:41:54.424Z,13.43
2019-03-28T03:44:22.908Z,12.63
2019-03-28T03:46:51.381Z,13.87
2019-03-28T03:49:19.843Z,14.10
2019-03-28T03:51:48.314Z,17.80
2019-03-28T03:54:16.808Z,18.20
2019-03-28T03:56:45.266Z,14.00
2019-03-28T03:59:13.754Z,14.33
2019-03-28T04:01:42.346Z,15.10
2019-03-28T04:04:10.780Z,14.23
2019-03-28T04:06:39.242Z,15.30
2019-03-28T04:09:08.082Z,17.23
2019-03-28T04:11:36.624Z,14.60
2019-03-28T04:14:05.260Z,14.50
2019-03-28T04:16:33.743Z,13.43
2019-03-28T04:19:02.215Z,13.30
2019-03-28T04:21:30.677Z,15.70
2019-03-28T04:23:59.155Z,13.83
2019-03-28T04:26:27.610Z,11.70
2019-03-28T04:28:56.281Z,13.00
2019-03-28T04:31:24.721Z,14.50
2019-03-28T04:33:53.231Z,13.23
2019-03-28T04:36:21.688Z,14.47
2019-03-28T04:38:50.632Z,11.10
2019-03-28T04:41:19.418Z,14.80
2019-03-28T04:43:47.922Z,11.73
2019-03-28T04:46:16.383Z,13.50
2019-03-28T04:48:44.859Z,12.63
2019-03-28T04:51:13.323Z,12.07
2019-03-28T04:53:41.905Z,11.60
2019-03-28T04:56:10.381Z,14.10
2019-03-28T04:58:44.283Z,14.07
2019-03-28T05:01:09.129Z,12.93
2019-03-28T05:03:37.630Z,12.37
2019-03-28T05:06:06.196Z,16.43
2019-03-28T05:08:34.638Z,12.43
2019-03-28T05:11:03.394Z,10.00
2019-03-28T05:13:31.855Z,10.03
2019-03-28T05:16:00.370Z,10.17
2019-03-28T05:18:28.807Z,10.13
2019-03-28T05:20:57.316Z,10.10
2019-03-28T05:23:25.794Z,10.77
2019-03-28T05:25:54.293Z,12.60
2019-03-28T05:28:22.849Z,10.53
2019-03-28T05:30:51.343Z,11.50
2019-03-28T05:33:19.811Z,10.23
2019-03-28T05:35:48.275Z,10.87
2019-03-28T05:38:16.739Z,9.80
2019-03-28T05:40:45.295Z,10.83
2019-03-28T05:43:13.761Z,11.40
2019-03-28T05:45:42.243Z,11.03
2019-03-28T05:48:10.691Z,9.90
2019-03-28T05:50:39.149Z,9.37
2019-03-28T05:53:07.674Z,10.33
2019-03-28T05:55:36.425Z,12.23
2019-03-28T05:58:04.879Z,11.57
2019-03-28T06:00:34.130Z,19.40
2019-03-28T06:03:02.618Z,12.97
2019-03-28T06:05:31.090Z,12.40
2019-03-28T06:07:59.588Z,11.63
2019-03-28T06:10:28.112Z,15.30
2019-03-28T06:12:56.868Z,11.87
2019-03-28T06:15:25.346Z,11.67
2019-03-28T06:17:54.364Z,15.37
2019-03-28T06:20:23.092Z,16.33
2019-03-28T06:22:51.543Z,14.10
2019-03-28T06:25:20.088Z,11.47
2019-03-28T06:27:48.648Z,14.73
2019-03-28T06:30:18.347Z,17.23
2019-03-28T06:32:46.927Z,15.90
2019-03-28T06:35:15.408Z,16.77
2019-03-28T06:37:43.929Z,15.37
2019-03-28T06:40:12.629Z,17.00
2019-03-28T06:42:41.206Z,15.33
2019-03-28T06:45:09.854Z,16.17
2019-03-28T06:47:38.301Z,17.30
2019-03-28T06:50:07.931Z,16.20
2019-03-28T06:52:36.371Z,18.00
2019-03-28T06:55:05.897Z,16.63
2019-03-28T06:57:34.365Z,17.37
2019-03-28T07:00:03.069Z,14.43
2019-03-28T07:02:31.600Z,17.20
2019-03-28T07:05:00.072Z,16.57
2019-03-28T07:07:28.551Z,16.70
2019-03-28T07:09:57.149Z,15.70
2019-03-28T07:12:25.676Z,15.10
2019-03-28T07:14:54.356Z,15.40
2019-03-28T07:17:23.007Z,17.60
2019-03-28T07:19:51.494Z,17.37
2019-03-28T07:22:19.985Z,22.83
2019-03-28T07:24:48.481Z,19.20
2019-03-28T07:27:17.382Z,20.50
2019-03-28T07:29:51.125Z,20.00
2019-03-28T07:32:16.269Z,23.13
2019-03-28T07:34:44.795Z,19.60
2019-03-28T07:37:13.273Z,17.53
2019-03-28T07:39:41.746Z,16.10
2019-03-28T07:42:10.197Z,18.40
2019-03-28T07:44:38.696Z,23.10
2019-03-28T07:47:07.147Z,26.63
2019-03-28T07:49:37.597Z,19.70
2019-03-28T07:52:05.906Z,21.30
2019-03-28T07:54:34.388Z,23.10
2019-03-28T07:57:02.841Z,26.63
2019-03-28T07:59:31.333Z,23.50
2019-03-28T08:01:59.800Z,27.70
2019-03-28T08:04:28.311Z,22.27
2019-03-28T08:06:56.824Z,19.00
2019-03-28T08:09:36.065Z,21.73
2019-03-28T08:11:55.548Z,26.03
2019-03-28T08:14:24.023Z,22.10
2019-03-28T08:16:53.020Z,22.90
2019-03-28T08:19:21.778Z,20.77
2019-03-28T08:21:50.241Z,26.07
2019-03-28T08:24:18.701Z,24.10
2019-03-28T08:26:47.228Z,24.87
2019-03-28T08:29:15.729Z,20.97
2019-03-28T08:31:46.069Z,27.50
2019-03-28T08:34:14.661Z,22.53
2019-03-28T08:36:43.704Z,19.90
2019-03-28T08:39:12.531Z,19.23
2019-03-28T08:41:40.989Z,22.00
2019-03-28T08:44:10.667Z,21.87
2019-03-28T08:46:39.485Z,20.17
2019-03-28T08:49:08.153Z,23.70
2019-03-28T08:51:36.613Z,21.07
2019-03-28T08:54:05.148Z,29.37
2019-03-28T08:56:33.606Z,23.23
2019-03-28T08:59:02.064Z,17.90
2019-03-28T09:01:30.551Z,20.43
2019-03-28T09:03:59.062Z,28.70
2019-03-28T09:06:27.540Z,21.63
2019-03-28T09:08:56.020Z,24.27
2019-03-28T09:11:24.476Z,23.30
2019-03-28T09:13:53.000Z,25.53
2019-03-28T09:16:21.467Z,31.73
2019-03-28T09:18:50.057Z,23.63
2019-03-28T09:21:18.487Z,22.10
2019-03-28T09:23:46.993Z,22.80
2019-03-28T09:26:15.462Z,25.50
2019-03-28T09:28:43.939Z,23.03
2019-03-28T09:31:19.947Z,20.57
2019-03-28T09:33:42.872Z,23.27
2019-03-28T09:36:11.453Z,25.57
2019-03-28T09:38:40.100Z,25.43
2019-03-28T09:41:08.643Z,25.10
2019-03-28T09:43:37.118Z,22.43
2019-03-28T09:46:05.891Z,24.53
2019-03-28T09:48:34.383Z,21.77
2019-03-28T09:51:02.833Z,22.83
2019-03-28T09:53:31.350Z,23.60
2019-03-28T09:55:59.794Z,20.47
2019-03-28T09:58:28.308Z,20.60
2019-03-28T10:01:02.558Z,20.33
2019-03-28T10:03:26.993Z,24.80
2019-03-28T10:05:55.457Z,20.77
2019-03-28T10:08:23.941Z,18.50
2019-03-28T10:10:52.755Z,18.60
2019-03-28T10:13:21.232Z,21.37
2019-03-28T10:15:49.699Z,19.30
2019-03-28T10:18:18.173Z,18.50
2019-03-28T10:20:46.723Z,20.57
2019-03-28T10:23:15.264Z,21.73
2019-03-28T10:25:43.742Z,18.87
2019-03-28T10:28:12.254Z,18.70
2019-03-28T10:30:44.910Z,17.50
2019-03-28T10:33:13.602Z,17.77
2019-03-28T10:35:42.287Z,26.13
2019-03-28T10:38:10.780Z,24.23
2019-03-28T10:40:39.272Z,22.13
2019-03-28T10:43:08.080Z,21.10
2019-03-28T10:45:36.523Z,22.53
2019-03-28T10:48:05.385Z,22.73
2019-03-28T10:50:42.461Z,22.27
2019-03-28T10:53:04.038Z,21.27
2019-03-28T10:55:32.485Z,20.63
2019-03-28T10:58:01.016Z,21.87
2019-03-28T11:00:29.493Z,19.83
2019-03-28T11:02:58.061Z,20.37
2019-03-28T11:05:26.566Z,21.20
2019-03-28T11:07:55.078Z,21.90
2019-03-28T11:10:23.510Z,20.40
2019-03-28T11:12:52.027Z,22.93
2019-03-28T11:15:20.473Z,21.63
2019-03-28T11:17:48.982Z,19.77
2019-03-28T11:20:17.500Z,18.50
2019-03-28T11:22:45.999Z,23.63
2019-03-28T11:25:14.666Z,20.50
2019-03-28T11:27:43.237Z,22.60
2019-03-28T11:30:12.583Z,19.70
2019-03-28T11:32:41.099Z,18.60
2019-03-28T11:35:09.914Z,19.67
2019-03-28T11:37:38.447Z,18.33
2019-03-28T11:40:09.671Z,24.93
2019-03-28T11:42:38.168Z,18.33
2019-03-28T11:45:09.552Z,18.10
2019-03-28T11:47:37.986Z,21.60
2019-03-28T11:50:08.000Z,19.20
2019-03-28T11:52:36.776Z,20.27
2019-03-28T11:55:07.393Z,17.93
2019-03-28T11:57:37.453Z,15.47
2019-03-28T12:00:12.011Z,19.70
2019-03-28T12:02:40.485Z,17.20
2019-03-28T12:05:08.954Z,15.77
2019-03-28T12:07:37.574Z,21.67
2019-03-28T12:10:08.283Z,22.23
2019-03-28T12:12:36.850Z,23.83
2019-03-28T12:15:08.487Z,21.30
2019-03-28T12:17:36.998Z,26.10
2019-03-28T12:20:07.624Z,19.70
2019-03-28T12:22:36.119Z,22.53
2019-03-28T12:25:05.942Z,18.80
2019-03-28T12:27:34.444Z,18.07
2019-03-28T12:30:03.069Z,22.20
2019-03-28T12:32:31.676Z,22.20
2019-03-28T12:35:00.441Z,19.00
2019-03-28T12:37:29.035Z,16.90
2019-03-28T12:39:59.966Z,17.60
2019-03-28T12:42:27.778Z,19.83
2019-03-28T12:44:57.434Z,16.43
2019-03-28T12:47:26.419Z,17.07
2019-03-28T12:49:54.889Z,19.63
2019-03-28T12:52:23.391Z,16.47
2019-03-28T12:54:51.853Z,19.70
2019-03-28T12:57:20.399Z,21.87
2019-03-28T12:59:48.871Z,16.97
2019-03-28T13:02:28.166Z,14.10
2019-03-28T13:04:47.581Z,12.93
2019-03-28T13:07:16.044Z,10.97
2019-03-28T13:09:44.563Z,13.63
2019-03-28T13:12:13.099Z,11.60
2019-03-28T13:14:41.611Z,13.40
2019-03-28T13:17:10.107Z,11.87
2019-03-28T13:19:38.588Z,14.03
2019-03-28T13:22:07.096Z,17.97
2019-03-28T13:24:35.597Z,11.10
2019-03-28T13:27:04.207Z,14.23
2019-03-28T13:29:32.753Z,10.70
2019-03-28T13:32:01.290Z,10.83
2019-03-28T13:34:29.694Z,18.80
2019-03-28T13:36:58.288Z,13.43
2019-03-28T13:39:26.732Z,13.50
2019-03-28T13:41:57.489Z,14.83
2019-03-28T13:44:25.965Z,13.20
2019-03-28T13:46:54.452Z,12.03
2019-03-28T13:49:22.938Z,12.77
2019-03-28T13:51:51.459Z,19.17
2019-03-28T13:54:23.024Z,16.73
2019-03-28T13:56:50.123Z,15.77
2019-03-28T13:59:18.592Z,19.20
2019-03-28T14:01:47.115Z,14.33
2019-03-28T14:04:15.588Z,17.90
2019-03-28T14:06:44.094Z,13.80
2019-03-28T14:09:12.557Z,20.03
2019-03-28T14:11:41.203Z,14.90
2019-03-28T14:14:09.671Z,20.53
2019-03-28T14:16:38.187Z,23.90
2019-03-28T14:19:06.662Z,16.23
2019-03-28T14:21:35.164Z,19.07
2019-03-28T14:24:03.658Z,17.47
2019-03-28T14:26:32.132Z,14.13
2019-03-28T14:29:00.709Z,12.30
2019-03-28T14:31:29.236Z,15.10
2019-03-28T14:33:57.679Z,16.07
2019-03-28T14:36:26.287Z,21.97
2019-03-28T14:38:54.735Z,16.53
2019-03-28T14:41:23.254Z,18.20
2019-03-28T14:43:51.695Z,11.00
2019-03-28T14:46:20.216Z,16.50
2019-03-28T14:48:48.660Z,12.60
2019-03-28T14:51:17.177Z,13.30
2019-03-28T14:53:45.858Z,15.40
2019-03-28T14:56:14.817Z,18.03
2019-03-28T14:58:43.747Z,16.33
2019-03-28T15:01:12.297Z,21.37
2019-03-28T15:03:40.874Z,20.33
2019-03-28T15:06:09.408Z,19.77
2019-03-28T15:08:37.909Z,23.03
2019-03-28T15:11:06.424Z,16.77
2019-03-28T15:13:34.909Z,21.80
2019-03-28T15:16:03.415Z,27.50
2019-03-28T15:18:31.935Z,21.43
2019-03-28T15:21:00.427Z,20.17
2019-03-28T15:23:28.931Z,18.97
2019-03-28T15:25:57.487Z,19.30
2019-03-28T15:28:25.982Z,23.67
2019-03-28T15:30:54.439Z,24.30
2019-03-28T15:33:22.982Z,22.77
2019-03-28T15:35:51.673Z,23.33
2019-03-28T15:38:20.204Z,18.53
2019-03-28T15:40:49.051Z,23.80
2019-03-28T15:43:17.523Z,19.93
2019-03-28T15:45:46.032Z,29.63
2019-03-28T15:48:14.564Z,27.13
2019-03-28T15:50:43.481Z,24.43
2019-03-28T15:53:11.961Z,19.03
2019-03-28T15:55:40.450Z,24.80
2019-03-28T15:58:22.163Z,25.67
2019-03-28T16:00:39.129Z,22.07
2019-03-28T16:03:07.934Z,20.87
2019-03-28T16:05:36.991Z,20.10
2019-03-28T16:08:05.518Z,21.70
2019-03-28T16:10:34.221Z,20.80
2019-03-28T16:13:02.688Z,18.27
2019-03-28T16:15:31.347Z,21.33
2019-03-28T16:17:59.899Z,20.97
2019-03-28T16:20:28.361Z,18.97
2019-03-28T16:22:56.903Z,18.60
2019-03-28T16:25:25.507Z,15.60
2019-03-28T16:27:54.025Z,21.43
2019-03-28T16:30:34.297Z,22.70
2019-03-28T16:33:02.840Z,18.27
2019-03-28T16:35:31.528Z,19.03
2019-03-28T16:38:00.022Z,17.43
2019-03-28T16:40:28.500Z,19.90
2019-03-28T16:42:56.998Z,16.50
2019-03-28T16:45:25.592Z,19.50
2019-03-28T16:47:54.098Z,21.10
2019-03-28T16:50:22.621Z,20.50
2019-03-28T16:52:51.231Z,20.10
2019-03-28T16:55:26.144Z,22.57
2019-03-28T16:57:49.930Z,18.13
2019-03-28T17:00:18.725Z,18.43
2019-03-28T17:02:47.307Z,19.33
2019-03-28T17:05:15.866Z,16.77
2019-03-28T17:07:45.401Z,20.80
2019-03-28T17:10:19.763Z,19.83
2019-03-28T17:12:48.254Z,15.50
2019-03-28T17:15:17.690Z,17.27
2019-03-28T17:17:46.413Z,23.90
2019-03-28T17:20:15.088Z,21.10
2019-03-28T17:22:43.745Z,16.40
2019-03-28T17:25:12.504Z,17.40
2019-03-28T17:27:40.986Z,22.10
2019-03-28T17:30:09.718Z,17.43
2019-03-28T17:32:38.864Z,17.90
2019-03-28T17:35:07.591Z,23.13
2019-03-28T17:37:36.086Z,20.80
2019-03-28T17:40:06.723Z,16.97
2019-03-28T17:42:35.217Z,17.07
2019-03-28T17:45:05.982Z,19.37
2019-03-28T17:47:34.617Z,20.53
2019-03-28T17:50:03.965Z,21.30
2019-03-28T17:52:32.469Z,20.13
2019-03-28T17:55:00.921Z,16.30
2019-03-28T17:57:29.406Z,19.20
2019-03-28T17:59:57.869Z,16.33
2019-03-28T18:02:26.654Z,19.53
2019-03-28T18:05:08.203Z,17.77
2019-03-28T18:07:25.306Z,21.60
2019-03-28T18:09:53.856Z,18.90
2019-03-28T18:12:22.513Z,15.60
2019-03-28T18:14:50.983Z,18.10
2019-03-28T18:17:19.447Z,22.03
2019-03-28T18:19:47.940Z,14.63
2019-03-28T18:22:16.731Z,17.13
2019-03-28T18:24:45.334Z,19.57
2019-03-28T18:27:13.847Z,16.70
2019-03-28T18:29:42.361Z,17.80
2019-03-28T18:32:10.992Z,18.00
2019-03-28T18:34:39.460Z,19.40
2019-03-28T18:37:08.234Z,22.90
2019-03-28T18:39:36.720Z,19.63
2019-03-28T18:42:05.494Z,24.73
2019-03-28T18:44:33.962Z,17.57
2019-03-28T18:47:02.434Z,20.63
2019-03-28T18:49:31.239Z,22.83
2019-03-28T18:51:59.881Z,21.77
2019-03-28T18:54:28.352Z,20.30
2019-03-28T18:56:56.995Z,18.07
2019-03-28T18:59:25.546Z,25.17
2019-03-28T19:01:54.074Z,20.33
2019-03-28T19:04:22.539Z,24.10
2019-03-28T19:06:51.131Z,19.50
2019-03-28T19:09:19.867Z,23.33
2019-03-28T19:11:48.776Z,28.17
2019-03-28T19:14:17.232Z,23.10
2019-03-28T19:16:48.298Z,29.97
2019-03-28T19:19:17.670Z,23.97
2019-03-28T19:21:46.331Z,28.63
2019-03-28T19:24:16.800Z,22.27
2019-03-28T19:26:45.446Z,20.20
2019-03-28T19:29:13.943Z,22.23
2019-03-28T19:31:43.446Z,20.93
2019-03-28T19:34:12.045Z,17.07
2019-03-28T19:36:40.965Z,22.07
2019-03-28T19:39:11.087Z,21.00
2019-03-28T19:41:39.550Z,21.23
2019-03-28T19:44:08.193Z,22.77
2019-03-28T19:46:36.673Z,18.00
2019-03-28T19:49:05.208Z,17.53
2019-03-28T19:51:34.065Z,19.97
2019-03-28T19:54:02.941Z,18.80
2019-03-28T19:56:31.458Z,14.07
2019-03-28T19:58:59.899Z,18.80
2019-03-28T20:01:28.401Z,20.60
2019-03-28T20:03:57.010Z,19.43
2019-03-28T20:06:25.699Z,17.60
2019-03-28T20:08:54.245Z,18.93
2019-03-28T20:11:22.790Z,18.90
2019-03-28T20:13:51.578Z,16.47
2019-03-28T20:16:20.161Z,16.63
2019-03-28T20:18:48.669Z,15.83
2019-03-28T20:21:17.201Z,17.03
2019-03-28T20:23:45.814Z,18.80
2019-03-28T20:26:14.853Z,23.50
2019-03-28T20:28:43.404Z,21.73
2019-03-28T20:31:11.888Z,20.77
2019-03-28T20:33:40.369Z,24.60
2019-03-28T20:36:35.694Z,21.90
2019-03-28T20:38:39.145Z,21.33
2019-03-28T20:41:07.787Z,21.73
2019-03-28T20:43:36.268Z,20.80
2019-03-28T20:46:04.873Z,27.13
2019-03-28T20:48:33.357Z,22.17
2019-03-28T20:51:03.444Z,23.47
2019-03-28T20:53:32.106Z,22.60
2019-03-28T20:56:00.643Z,43.23
2019-03-28T20:58:29.225Z,40.87
2019-03-28T21:00:58.232Z,33.90
2019-03-28T21:03:26.834Z,41.33
2019-03-28T21:05:55.340Z,33.83
2019-03-28T21:08:23.817Z,43.90
2019-03-28T21:10:52.331Z,28.03
2019-03-28T21:13:20.846Z,32.30
2019-03-28T21:15:49.335Z,32.40
2019-03-28T21:18:17.852Z,29.17
2019-03-28T21:20:46.350Z,40.77
2019-03-28T21:23:14.794Z,36.70
2019-03-28T21:25:43.309Z,27.33
2019-03-28T21:28:13.778Z,28.37
2019-03-28T21:30:47.594Z,26.57
2019-03-28T21:33:14.806Z,32.20
2019-03-28T21:35:42.367Z,27.37
2019-03-28T21:38:10.884Z,21.40
2019-03-28T21:40:39.380Z,22.53
2019-03-28T21:43:07.840Z,22.23
2019-03-28T21:45:36.317Z,18.33
2019-03-28T21:48:04.853Z,17.90
2019-03-28T21:50:33.353Z,18.63
2019-03-28T21:53:01.894Z,18.80
2019-03-28T21:55:30.367Z,18.67
2019-03-28T21:57:58.904Z,21.33
2019-03-28T22:00:27.456Z,19.30
2019-03-28T22:02:55.996Z,21.43
2019-03-28T22:05:24.608Z,18.43
2019-03-28T22:07:53.091Z,26.17
2019-03-28T22:10:21.561Z,22.33
2019-03-28T22:12:50.043Z,22.03
2019-03-28T22:15:18.509Z,22.73
2019-03-28T22:17:46.991Z,24.50
2019-03-28T22:20:15.449Z,21.50
2019-03-28T22:22:43.975Z,23.73
2019-03-28T22:25:12.435Z,27.50
2019-03-28T22:27:40.901Z,35.60
2019-03-28T22:30:09.908Z,27.47
2019-03-28T22:32:38.375Z,24.90
2019-03-28T22:35:07.925Z,26.90
2019-03-28T22:37:36.497Z,26.23
2019-03-28T22:40:07.577Z,31.37
2019-03-28T22:42:36.066Z,30.27
2019-03-28T22:45:06.974Z,31.03
2019-03-28T22:47:35.835Z,45.07
2019-03-28T22:50:06.945Z,23.33
2019-03-28T22:52:35.536Z,29.93
2019-03-28T22:55:07.460Z,32.00
2019-03-28T22:57:35.959Z,25.80
2019-03-28T23:00:07.608Z,23.50
2019-03-28T23:02:36.260Z,44.87
2019-03-28T23:05:05.873Z,140.90
2019-03-28T23:07:34.385Z,101.27
2019-03-28T23:10:03.323Z,40.93
2019-03-28T23:12:31.840Z,29.07
2019-03-28T23:15:00.395Z,26.87
2019-03-28T23:17:29.438Z,36.97
2019-03-28T23:19:58.117Z,35.47
2019-03-28T23:22:26.715Z,32.33
2019-03-28T23:24:55.223Z,36.67
2019-03-28T23:27:23.716Z,46.13
2019-03-28T23:29:52.283Z,89.50
2019-03-28T23:32:20.906Z,46.80
2019-03-28T23:34:49.434Z,36.47
2019-03-28T23:37:24.673Z,43.40
2019-03-28T23:39:48.184Z,32.03
2019-03-28T23:42:17.821Z,34.63
2019-03-28T23:44:46.452Z,34.17
2019-03-28T23:47:14.915Z,33.83
2019-03-28T23:49:43.385Z,34.43
2019-03-28T23:52:11.876Z,37.23
2019-03-28T23:54:40.344Z,36.50
2019-03-28T23:57:08.824Z,39.37
2019-03-28T23:59:37.644Z,37.97
